Time;durP1;ratioP1;P1;durP2;ratioP2;P2;SDS_P1;SDS_P2;PMS_P1;PMS_P2;Temp;Humidity;BMP_temperature;BMP_pressure;BME280_temperature;BME280_humidity;BME280_pressure;Samples;Min_cycle;Max_cycle;Signal;HPM_P1;HPM_P2
2024/04/17 00:01:20;;;;;;;3.40;1.80;;;;;;;11.99;100.00;98711.42;87532;277;137983;-74
2024/04/17 00:03:21;;;;;;;1.60;1.50;;;;;;;11.89;100.00;98749.28;87664;266;22604;-75
2024/04/17 00:05:22;;;;;;;3.70;1.70;;;;;;;11.81;100.00;98765.88;87555;269;136763;-73
2024/04/17 00:07:22;;;;;;;1.60;1.30;;;;;;;11.72;100.00;98752.91;87659;279;22616;-74
2024/04/17 00:09:23;;;;;;;2.10;0.90;;;;;;;11.59;100.00;98714.20;87502;277;137875;-74
2024/04/17 00:11:24;;;;;;;4.10;0.90;;;;;;;11.42;100.00;98706.38;87644;274;25207;-74
2024/04/17 00:13:24;;;;;;;2.00;0.70;;;;;;;11.22;100.00;98706.73;87512;269;138233;-75
2024/04/17 00:15:25;;;;;;;0.70;0.60;;;;;;;11.01;100.00;98702.98;87594;266;22532;-75
2024/04/17 00:17:26;;;;;;;1.10;0.70;;;;;;;10.81;100.00;98673.16;87536;273;138165;-75
2024/04/17 00:19:26;;;;;;;4.40;0.80;;;;;;;10.57;100.00;98664.33;87611;277;22555;-74
2024/04/17 00:21:27;;;;;;;1.30;0.90;;;;;;;10.35;100.00;98685.14;87484;269;137996;-77
2024/04/17 00:23:28;;;;;;;2.20;0.80;;;;;;;10.17;100.00;98703.98;87578;273;22560;-74
2024/04/17 00:25:28;;;;;;;4.30;0.60;;;;;;;10.02;100.00;98685.27;87476;277;136741;-74
2024/04/17 00:27:29;;;;;;;1.30;1.20;;;;;;;9.90;100.00;98673.92;87597;266;25090;-74
2024/04/17 00:29:30;;;;;;;0.80;0.80;;;;;;;9.78;100.00;98682.30;87233;272;137009;-74
2024/04/17 00:31:30;;;;;;;1.00;0.70;;;;;;;9.62;100.00;98673.77;87629;271;22928;-74
2024/04/17 00:33:31;;;;;;;1.60;0.60;;;;;;;9.48;100.00;98676.91;87182;269;136956;-75
2024/04/17 00:35:32;;;;;;;1.30;0.40;;;;;;;9.37;100.00;98676.46;87270;274;22665;-75
2024/04/17 00:37:32;;;;;;;1.10;0.40;;;;;;;9.31;100.00;98680.09;87201;270;137170;-74
2024/04/17 00:39:33;;;;;;;0.70;0.70;;;;;;;9.26;100.00;98668.07;87210;270;22561;-75
2024/04/17 00:41:34;;;;;;;2.80;0.90;;;;;;;9.18;100.00;98677.06;87167;270;137740;-75
2024/04/17 00:43:34;;;;;;;3.00;0.90;;;;;;;9.11;100.00;98681.80;87276;266;23785;-73
2024/04/17 00:45:41;;;;;;;0.80;0.60;;;;;;;9.06;100.00;98693.98;87097;270;136765;-73
2024/04/17 00:47:42;;;;;;;0.70;0.70;;;;;;;8.99;100.00;98693.14;87328;270;22588;-75
2024/04/17 00:49:43;;;;;;;0.50;0.50;;;;;;;8.96;100.00;98702.98;87132;271;136637;-75
2024/04/17 00:51:46;;;;;;;1.80;1.30;;;;;;;8.93;100.00;98728.20;87261;266;22767;-75
2024/04/17 00:53:46;;;;;;;0.80;0.70;;;;;;;8.90;100.00;98743.98;87258;274;136879;-74
2024/04/17 00:55:47;;;;;;;1.10;0.60;;;;;;;8.91;100.00;98745.86;87314;269;22571;-76
2024/04/17 00:57:49;;;;;;;2.40;0.60;;;;;;;8.93;100.00;98748.55;87250;274;136134;-75
2024/04/17 00:59:50;;;;;;;1.20;0.40;;;;;;;8.97;100.00;98730.33;87535;278;22585;-75
2024/04/17 01:01:51;;;;;;;0.90;0.50;;;;;;;9.00;100.00;98735.30;87510;270;136316;-75
2024/04/17 01:03:51;;;;;;;1.20;0.60;;;;;;;9.02;100.00;98750.48;87594;266;24032;-75
2024/04/17 01:05:52;;;;;;;1.50;0.70;;;;;;;9.05;100.00;98756.16;87419;270;137090;-75
2024/04/17 01:07:53;;;;;;;0.40;0.40;;;;;;;9.06;100.00;98714.19;87480;279;22568;-74
2024/04/17 01:09:54;;;;;;;0.80;0.80;;;;;;;9.07;100.00;98692.42;87449;270;137654;-74
2024/04/17 01:11:55;;;;;;;1.10;0.80;;;;;;;9.08;100.00;98642.69;87135;270;26280;-74
2024/04/17 01:13:55;;;;;;;0.40;0.30;;;;;;;9.05;100.00;98657.89;87171;272;137510;-75
2024/04/17 01:15:57;;;;;;;3.30;0.70;;;;;;;9.02;100.00;98664.38;87317;269;23736;-75
2024/04/17 01:17:59;;;;;;;2.60;0.70;;;;;;;8.99;100.00;98662.36;87396;271;137508;-74
2024/04/17 01:20:00;;;;;;;0.50;0.30;;;;;;;8.98;100.00;98654.89;87362;271;23394;-76
2024/04/17 01:22:00;;;;;;;1.50;0.40;;;;;;;8.95;100.00;98659.81;87184;272;138043;-74
2024/04/17 01:24:01;;;;;;;0.50;0.40;;;;;;;8.91;100.00;98659.00;87285;269;24155;-74
2024/04/17 01:26:02;;;;;;;2.40;0.40;;;;;;;8.87;100.00;98658.02;87141;278;157196;-74
2024/04/17 01:28:03;;;;;;;0.50;0.40;;;;;;;8.82;100.00;98657.73;87156;271;137147;-73
2024/04/17 01:30:05;;;;;;;1.00;0.30;;;;;;;8.76;100.00;98637.27;87459;279;22563;-72
2024/04/17 01:32:05;;;;;;;0.20;0.20;;;;;;;8.70;100.00;98637.23;87073;271;138193;-75
2024/04/17 01:34:06;;;;;;;0.50;0.30;;;;;;;8.63;100.00;98642.91;87325;270;24373;-77
2024/04/17 01:36:08;;;;;;;0.90;0.40;;;;;;;8.60;100.00;98648.55;87462;270;136496;-76
2024/04/17 01:38:08;;;;;;;0.90;0.50;;;;;;;8.56;100.00;98633.47;87301;274;22546;-75
2024/04/17 01:40:09;;;;;;;2.20;0.40;;;;;;;8.53;100.00;98631.98;87216;266;137568;-73
2024/04/17 01:42:10;;;;;;;1.80;0.40;;;;;;;8.52;100.00;98625.95;87285;266;22558;-75
2024/04/17 01:44:11;;;;;;;0.40;0.40;;;;;;;8.52;100.00;98624.14;87494;277;137991;-73
2024/04/17 01:46:11;;;;;;;0.80;0.30;;;;;;;8.51;100.00;98615.09;87573;266;22636;-75
2024/04/17 01:48:12;;;;;;;0.50;0.50;;;;;;;8.49;100.00;98608.52;87439;270;137725;-75
2024/04/17 01:50:24;;;;;;;0.30;0.30;;;;;;;8.48;100.00;98607.96;87601;270;25186;-73
2024/04/17 01:52:25;;;;;;;0.40;0.30;;;;;;;8.46;100.00;98596.59;87051;275;137798;-75
2024/04/17 01:54:26;;;;;;;2.10;0.50;;;;;;;8.45;100.00;98585.20;87523;277;24174;-75
2024/04/17 01:56:27;;;;;;;2.40;0.40;;;;;;;8.44;100.00;98574.38;87547;267;137303;-74
2024/04/17 01:58:27;;;;;;;1.90;0.40;;;;;;;8.42;100.00;98582.52;87546;270;22599;-76
2024/04/17 02:00:28;;;;;;;0.90;0.50;;;;;;;8.42;100.00;98602.13;87423;269;139029;-74
2024/04/17 02:02:29;;;;;;;0.40;0.40;;;;;;;8.41;100.00;98612.09;87558;278;22558;-74
2024/04/17 02:04:30;;;;;;;1.00;0.90;;;;;;;8.40;100.00;98607.44;87454;266;137705;-75
2024/04/17 02:06:31;;;;;;;1.80;0.90;;;;;;;8.38;100.00;98604.66;87552;274;23403;-75
2024/04/17 02:08:32;;;;;;;0.80;0.70;;;;;;;8.33;100.00;98593.52;87526;277;137884;-74
2024/04/17 02:10:32;;;;;;;1.00;0.60;;;;;;;8.31;100.00;98591.33;87590;277;22573;-75
2024/04/17 02:12:33;;;;;;;1.10;0.40;;;;;;;8.29;100.00;98591.46;87446;271;136249;-75
2024/04/17 02:14:34;;;;;;;2.40;0.80;;;;;;;8.28;100.00;98595.72;87592;269;26201;-75
2024/04/17 02:16:34;;;;;;;2.30;0.70;;;;;;;8.31;100.00;98602.80;87497;269;136619;-75
2024/04/17 02:18:35;;;;;;;1.90;0.30;;;;;;;8.33;100.00;98611.08;87405;274;25092;-74
2024/04/17 02:20:36;;;;;;;0.50;0.50;;;;;;;8.34;100.00;98611.67;87108;276;137949;-74
2024/04/17 02:22:37;;;;;;;2.80;0.80;;;;;;;8.35;100.00;98615.06;87320;270;23382;-75
2024/04/17 02:24:38;;;;;;;1.00;1.00;;;;;;;8.36;100.00;98613.34;87484;274;136185;-75
2024/04/17 02:26:38;;;;;;;1.10;1.00;;;;;;;8.37;100.00;98619.45;87614;273;22582;-75
2024/04/17 02:28:39;;;;;;;1.20;0.70;;;;;;;8.38;100.00;98629.17;87531;269;136637;-74
2024/04/17 02:30:40;;;;;;;1.00;0.80;;;;;;;8.38;100.00;98626.43;87693;266;22642;-73
2024/04/17 02:32:40;;;;;;;0.70;0.60;;;;;;;8.39;100.00;98630.43;87546;266;136312;-74
2024/04/17 02:36:03;;;;;;;2.00;0.90;;;;;;;8.33;100.00;98634.42;85439;304;603306;-73
2024/04/17 02:38:04;;;;;;;0.70;0.70;;;;;;;8.34;100.00;98638.07;86630;288;22658;-74
2024/04/17 02:40:05;;;;;;;1.70;0.90;;;;;;;8.35;100.00;98635.86;86326;292;136291;-75
2024/04/17 02:42:06;;;;;;;2.50;0.90;;;;;;;8.35;100.00;98631.64;86873;286;22602;-75
2024/04/17 02:44:06;;;;;;;0.60;0.60;;;;;;;8.35;100.00;98627.55;87051;285;136100;-74
2024/04/17 02:46:07;;;;;;;2.30;0.80;;;;;;;8.36;100.00;98624.45;86971;285;22575;-73
2024/04/17 02:48:08;;;;;;;0.90;0.90;;;;;;;8.36;100.00;98626.90;86859;286;137772;-73
2024/04/17 02:50:09;;;;;;;3.30;0.90;;;;;;;8.37;100.00;98633.67;86217;277;746417;-75
2024/04/17 02:52:09;;;;;;;1.00;0.90;;;;;;;8.40;100.00;98629.61;87068;285;136842;-75
2024/04/17 02:54:10;;;;;;;1.70;1.40;;;;;;;8.44;100.00;98628.59;86944;280;24052;-76
2024/04/17 02:56:11;;;;;;;0.50;0.50;;;;;;;8.47;100.00;98625.52;87007;273;137676;-75
2024/04/17 02:58:11;;;;;;;0.80;0.80;;;;;;;8.49;100.00;98623.92;87084;274;22566;-73
2024/04/17 03:00:12;;;;;;;1.10;1.00;;;;;;;8.49;100.00;98631.13;86987;277;137494;-73
2024/04/17 03:02:13;;;;;;;1.10;1.00;;;;;;;8.49;100.00;98637.98;87138;276;23312;-74
2024/04/17 03:04:13;;;;;;;1.80;0.90;;;;;;;8.49;100.00;98642.36;86971;273;138474;-73
2024/04/17 03:06:14;;;;;;;0.60;0.60;;;;;;;8.50;100.00;98637.27;86876;272;25222;-73
2024/04/17 03:08:15;;;;;;;0.80;0.60;;;;;;;8.51;100.00;98649.13;86847;276;137461;-70
2024/04/17 03:10:15;;;;;;;0.80;0.80;;;;;;;8.52;100.00;98656.26;86895;276;22590;-75
2024/04/17 03:12:17;;;;;;;0.50;0.40;;;;;;;8.53;100.00;98656.34;87141;274;137374;-73
2024/04/17 03:14:18;;;;;;;1.20;0.40;;;;;;;8.53;100.00;98665.33;87333;270;25293;-76
2024/04/17 03:16:19;;;;;;;0.40;0.40;;;;;;;8.53;100.00;98675.62;87117;274;137991;-75
2024/04/17 03:18:21;;;;;;;0.50;0.50;;;;;;;8.51;100.00;98686.02;87187;278;23993;-77
2024/04/17 03:20:21;;;;;;;0.60;0.40;;;;;;;8.46;100.00;98698.52;86849;274;138793;-74
2024/04/17 03:22:22;;;;;;;0.40;0.40;;;;;;;8.47;100.00;98706.23;87339;282;22561;-74
2024/04/17 03:24:23;;;;;;;0.40;0.40;;;;;;;8.49;100.00;98716.06;86820;278;136015;-74
2024/04/17 03:26:23;;;;;;;1.40;1.30;;;;;;;8.45;100.00;98723.77;86846;275;22583;-76
2024/04/17 03:28:25;;;;;;;0.80;0.50;;;;;;;8.42;100.00;98729.69;86748;275;135993;-75
2024/04/17 03:30:25;;;;;;;0.50;0.50;;;;;;;8.40;100.00;98736.31;86863;283;25101;-73
2024/04/17 03:32:26;;;;;;;0.80;0.50;;;;;;;8.38;100.00;98740.95;86976;274;136367;-74
2024/04/17 03:34:27;;;;;;;0.40;0.40;;;;;;;8.36;100.00;98742.90;87222;276;23400;-75
2024/04/17 03:36:27;;;;;;;0.50;0.40;;;;;;;8.29;100.00;98744.69;87185;274;136106;-76
2024/04/17 03:38:28;;;;;;;0.80;0.60;;;;;;;8.26;100.00;98751.05;87171;282;22569;-75
2024/04/17 03:40:29;;;;;;;2.80;0.60;;;;;;;8.23;100.00;98750.86;87112;276;137180;-72
2024/04/17 03:42:31;;;;;;;2.60;0.50;;;;;;;8.23;100.00;98757.46;87380;282;22632;-75
2024/04/17 03:44:32;;;;;;;0.20;0.20;;;;;;;8.22;100.00;98752.92;87094;270;136422;-74
2024/04/17 03:46:32;;;;;;;0.90;0.40;;;;;;;8.19;100.00;98757.56;87137;276;22590;-79
2024/04/17 03:48:33;;;;;;;1.20;0.40;;;;;;;8.16;100.00;98761.95;86920;271;136638;-75
2024/04/17 03:50:34;;;;;;;0.50;0.50;;;;;;;8.12;100.00;98771.77;87143;271;24040;-73
2024/04/17 03:52:34;;;;;;;0.70;0.50;;;;;;;8.09;100.00;98781.73;87251;270;137236;-77
2024/04/17 03:54:35;;;;;;;0.70;0.30;;;;;;;8.04;100.00;98786.63;87175;274;22575;-75
2024/04/17 03:56:36;;;;;;;1.10;0.40;;;;;;;7.96;100.00;98792.34;86815;274;137166;-75
2024/04/17 03:58:36;;;;;;;0.50;0.30;;;;;;;7.89;100.00;98787.67;87414;271;26215;-76
2024/04/17 04:00:37;;;;;;;0.50;0.50;;;;;;;7.86;100.00;98780.87;87167;279;138291;-75
2024/04/17 04:02:38;;;;;;;1.00;0.60;;;;;;;7.79;100.00;98774.17;87377;278;22593;-74
2024/04/17 04:04:39;;;;;;;0.60;0.30;;;;;;;7.77;100.00;98770.25;87231;279;137543;-74
2024/04/17 04:06:40;;;;;;;0.80;0.70;;;;;;;7.76;100.00;98759.97;87244;271;24065;-74
2024/04/17 04:08:40;;;;;;;0.50;0.50;;;;;;;7.74;100.00;98756.15;87189;270;136727;-75
2024/04/17 04:10:41;;;;;;;0.60;0.30;;;;;;;7.70;100.00;98752.36;87196;275;24170;-72
2024/04/17 04:12:42;;;;;;;1.30;0.40;;;;;;;7.66;100.00;98744.86;87407;273;137333;-72
2024/04/17 04:14:42;;;;;;;1.40;0.50;;;;;;;7.65;100.00;98741.67;87314;282;25124;-73
2024/04/17 04:16:44;;;;;;;1.70;0.40;;;;;;;7.63;100.00;98742.46;87584;270;136626;-75
2024/04/17 04:18:45;;;;;;;1.40;0.50;;;;;;;7.62;100.00;98733.94;88920;278;22569;-74
2024/04/17 04:20:46;;;;;;;0.90;0.70;;;;;;;7.62;100.00;98733.04;89523;278;135815;-74
2024/04/17 04:22:48;;;;;;;1.30;0.40;;;;;;;7.64;100.00;98724.59;89538;278;22570;-72
2024/04/17 04:24:48;;;;;;;3.30;0.60;;;;;;;7.64;100.00;98715.05;89618;267;136511;-74
2024/04/17 04:26:49;;;;;;;1.10;0.60;;;;;;;7.62;100.00;98710.19;89542;275;22535;-70
2024/04/17 04:28:49;;;;;;;0.30;0.30;;;;;;;7.61;100.00;98706.29;88228;281;137429;-74
2024/04/17 04:30:51;;;;;;;0.60;0.40;;;;;;;7.59;100.00;98700.86;88186;275;23695;-74
2024/04/17 04:32:52;;;;;;;3.00;0.50;;;;;;;7.56;100.00;98690.80;87992;268;136579;-74
2024/04/17 04:34:53;;;;;;;1.40;0.40;;;;;;;7.55;100.00;98695.38;88167;275;22566;-74
2024/04/17 04:36:54;;;;;;;0.70;0.40;;;;;;;7.55;100.00;98693.86;88035;269;136101;-77
2024/04/17 04:38:54;;;;;;;0.70;0.30;;;;;;;7.52;100.00;98691.46;87457;272;24014;-73
2024/04/17 04:40:55;;;;;;;0.60;0.30;;;;;;;7.48;100.00;98686.78;87486;266;137873;-74
2024/04/17 04:42:56;;;;;;;2.70;0.20;;;;;;;7.46;100.00;98678.48;87515;275;23772;-74
2024/04/17 04:44:57;;;;;;;0.50;0.50;;;;;;;7.44;100.00;98674.65;87204;269;135980;-74
2024/04/17 04:47:01;;;;;;;0.40;0.20;;;;;;;7.44;100.00;98678.08;87471;280;25169;-76
2024/04/17 04:49:01;;;;;;;0.60;0.30;;;;;;;7.41;100.00;98681.54;87356;268;135913;-74
2024/04/17 04:51:02;;;;;;;1.30;0.20;;;;;;;7.36;100.00;98691.23;87180;272;22567;-73
2024/04/17 04:53:03;;;;;;;0.20;0.20;;;;;;;7.34;100.00;98704.60;87231;273;137401;-73
2024/04/17 04:55:05;;;;;;;1.00;0.20;;;;;;;7.33;100.00;98707.95;87397;276;22566;-74
2024/04/17 04:57:07;;;;;;;0.40;0.30;;;;;;;7.31;100.00;98695.84;87149;271;136096;-75
2024/04/17 04:59:07;;;;;;;0.40;0.40;;;;;;;7.29;100.00;98702.45;87407;272;22572;-73
2024/04/17 05:01:08;;;;;;;2.70;0.60;;;;;;;7.28;100.00;98701.88;87142;275;136337;-75
2024/04/17 05:03:09;;;;;;;0.30;0.20;;;;;;;7.29;100.00;98711.82;87476;272;22632;-75
2024/04/17 05:05:09;;;;;;;0.80;0.50;;;;;;;7.27;100.00;98705.31;87360;280;135924;-75
2024/04/17 05:07:10;;;;;;;1.30;0.40;;;;;;;7.25;100.00;98705.56;87523;268;22620;-74
2024/04/17 05:09:11;;;;;;;0.40;0.40;;;;;;;7.22;100.00;98702.34;87078;279;137219;-73
2024/04/17 05:11:11;;;;;;;0.40;0.30;;;;;;;7.20;100.00;98702.58;87093;272;22572;-73
2024/04/17 05:13:12;;;;;;;0.50;0.20;;;;;;;7.17;100.00;98706.34;86980;276;136171;-73
2024/04/17 05:15:13;;;;;;;1.50;0.60;;;;;;;7.15;100.00;98709.11;87052;271;24006;-73
2024/04/17 05:17:14;;;;;;;3.20;0.30;;;;;;;7.14;100.00;98714.08;87041;270;136925;-74
2024/04/17 05:19:14;;;;;;;1.80;0.40;;;;;;;7.15;100.00;98711.39;87172;272;25220;-73
2024/04/17 05:21:15;;;;;;;0.80;0.20;;;;;;;7.17;100.00;98717.06;87354;268;136832;-72
2024/04/17 05:23:15;;;;;;;3.40;0.30;;;;;;;7.20;100.00;98725.66;87283;268;22564;-75
2024/04/17 05:25:16;;;;;;;1.70;0.60;;;;;;;7.24;100.00;98728.67;87167;271;136710;-75
2024/04/17 05:27:17;;;;;;;3.10;1.30;;;;;;;7.24;100.00;98727.38;87224;271;22830;-75
2024/04/17 05:29:17;;;;;;;0.70;0.60;;;;;;;7.23;100.00;98731.77;87253;268;136729;-74
2024/04/17 05:31:18;;;;;;;0.90;0.40;;;;;;;7.22;100.00;98734.88;87466;267;24145;-74
2024/04/17 05:33:19;;;;;;;0.50;0.40;;;;;;;7.24;100.00;98737.48;87406;270;136383;-74
2024/04/17 05:35:20;;;;;;;0.50;0.50;;;;;;;7.24;100.00;98737.15;87406;270;25220;-74
2024/04/17 05:37:21;;;;;;;0.40;0.40;;;;;;;7.20;100.00;98730.02;87237;278;137397;-73
2024/04/17 05:39:21;;;;;;;0.40;0.40;;;;;;;7.16;100.00;98730.84;87481;268;25174;-76
2024/04/17 05:41:22;;;;;;;0.50;0.30;;;;;;;7.13;100.00;98730.71;87797;267;136363;-72
2024/04/17 05:43:23;;;;;;;2.90;0.70;;;;;;;7.12;100.00;98734.64;87605;273;22634;-78
2024/04/17 05:45:24;;;;;;;0.50;0.50;;;;;;;7.11;100.00;98741.86;87524;275;137816;-80
2024/04/17 05:47:24;;;;;;;1.10;1.00;;;;;;;7.11;100.00;98749.48;87697;268;22569;-77
2024/04/17 05:49:25;;;;;;;0.70;0.40;;;;;;;7.11;100.00;98758.20;87694;267;138701;-83
2024/04/17 05:51:26;;;;;;;1.70;1.10;;;;;;;7.12;100.00;98759.91;87646;271;22655;-79
2024/04/17 05:53:27;;;;;;;0.80;0.80;;;;;;;7.13;100.00;98762.14;87911;267;137494;-84
2024/04/17 05:55:28;;;;;;;2.90;2.60;;;;;;;7.16;100.00;98764.23;87909;278;22651;-85
2024/04/17 05:57:29;;;;;;;2.40;2.20;;;;;;;7.18;100.00;98766.11;87700;276;136752;-87
2024/04/17 05:59:29;;;;;;;3.80;2.00;;;;;;;7.19;100.00;98762.27;87481;280;22543;-78
2024/04/17 06:01:30;;;;;;;2.50;1.40;;;;;;;7.20;100.00;98770.06;88031;266;136655;-86
2024/04/17 06:03:31;;;;;;;1.00;0.90;;;;;;;7.21;100.00;98769.45;87677;279;25262;-82
2024/04/17 06:05:32;;;;;;;1.80;1.70;;;;;;;7.21;100.00;98774.58;87692;278;137661;-85
2024/04/17 06:07:32;;;;;;;2.50;1.50;;;;;;;7.21;100.00;98779.11;87859;270;22549;-87
2024/04/17 06:09:33;;;;;;;7.00;1.30;;;;;;;7.22;100.00;98784.48;87723;272;137741;-89
2024/04/17 06:11:34;;;;;;;3.60;1.20;;;;;;;7.24;100.00;98787.05;87802;272;22644;-85
2024/04/17 06:13:34;;;;;;;1.10;1.10;;;;;;;7.27;100.00;98792.44;87485;264;137871;-84
2024/04/17 06:15:35;;;;;;;3.50;1.60;;;;;;;7.31;100.00;98801.90;87490;271;22545;-77
2024/04/17 06:17:36;;;;;;;1.00;1.00;;;;;;;7.33;100.00;98802.42;87450;270;136542;-75
2024/04/17 06:19:37;;;;;;;1.10;1.10;;;;;;;7.34;100.00;98805.11;87645;270;22568;-77
2024/04/17 06:21:38;;;;;;;1.90;1.80;;;;;;;7.34;100.00;98807.77;87517;267;137452;-76
2024/04/17 06:23:38;;;;;;;2.50;1.40;;;;;;;7.34;100.00;98812.29;87388;270;22561;-76
2024/04/17 06:25:45;;;;;;;1.70;1.40;;;;;;;7.35;100.00;98819.63;87416;277;136972;-75
2024/04/17 06:27:46;;;;;;;1.70;1.30;;;;;;;7.38;100.00;98830.03;87315;272;25551;-79
2024/04/17 06:29:47;;;;;;;1.20;1.20;;;;;;;7.40;100.00;98830.23;87345;279;137613;-78
2024/04/17 06:31:48;;;;;;;0.90;0.70;;;;;;;7.40;100.00;98829.83;87439;273;22571;-78
2024/04/17 06:33:49;;;;;;;1.10;0.90;;;;;;;7.38;100.00;98832.39;87413;272;136702;-87
2024/04/17 06:35:49;;;;;;;2.70;1.20;;;;;;;7.38;100.00;98830.85;87725;272;25297;-87
2024/04/17 06:37:50;;;;;;;2.70;1.40;;;;;;;7.37;100.00;98835.86;87607;274;136851;-87
2024/04/17 06:39:51;;;;;;;2.80;1.10;;;;;;;7.36;100.00;98839.20;87782;279;22571;-85
2024/04/17 06:41:51;;;;;;;2.60;2.40;;;;;;;7.34;100.00;98840.19;87474;279;138030;-85
2024/04/17 06:43:52;;;;;;;1.00;1.00;;;;;;;7.33;100.00;98841.36;87581;279;22629;-86
2024/04/17 06:45:53;;;;;;;0.80;0.60;;;;;;;7.34;100.00;98843.73;87506;269;138170;-85
2024/04/17 06:47:53;;;;;;;0.90;0.90;;;;;;;7.35;100.00;98848.30;87610;267;22638;-86
2024/04/17 06:49:54;;;;;;;2.40;1.30;;;;;;;7.35;100.00;98855.96;87592;266;136308;-85
2024/04/17 06:51:54;;;;;;;1.20;1.20;;;;;;;7.34;100.00;98858.33;87684;274;25121;-88
2024/04/17 06:53:55;;;;;;;1.60;1.50;;;;;;;7.34;100.00;98861.47;87879;270;137277;-85
2024/04/17 06:55:57;;;;;;;1.20;1.10;;;;;;;7.35;100.00;98861.64;87750;275;22593;-85
2024/04/17 06:57:59;;;;;;;1.00;0.80;;;;;;;7.37;100.00;98862.54;87568;271;136417;-85
2024/04/17 07:00:00;;;;;;;1.30;1.30;;;;;;;7.38;100.00;98858.05;87888;267;25255;-88
2024/04/17 07:02:00;;;;;;;1.40;1.10;;;;;;;7.37;100.00;98859.06;87724;270;137601;-85
2024/04/17 07:04:01;;;;;;;1.60;1.50;;;;;;;7.37;100.00;98864.25;87868;271;22571;-87
2024/04/17 07:06:03;;;;;;;2.60;1.50;;;;;;;7.39;100.00;98860.56;87646;280;136345;-86
2024/04/17 07:08:04;;;;;;;3.00;1.90;;;;;;;7.40;100.00;98863.19;87825;270;138128;-86
2024/04/17 07:10:05;;;;;;;1.30;1.20;;;;;;;7.42;100.00;98861.18;87615;281;22567;-87
2024/04/17 07:12:06;;;;;;;4.30;1.60;;;;;;;7.43;100.00;98856.98;87608;270;136586;-86
2024/04/17 07:14:07;;;;;;;1.90;1.80;;;;;;;7.44;100.00;98855.65;88023;276;22718;-82
2024/04/17 07:16:09;;;;;;;2.40;1.60;;;;;;;7.44;100.00;98855.41;87757;279;136822;-79
2024/04/17 07:18:09;;;;;;;1.40;1.40;;;;;;;7.46;100.00;98848.10;87690;268;25396;-80
2024/04/17 07:20:10;;;;;;;3.00;2.70;;;;;;;7.45;100.00;98845.78;87462;269;138530;-80
2024/04/17 07:22:11;;;;;;;3.00;2.30;;;;;;;7.43;100.00;98851.11;87726;270;22564;-80
2024/04/17 07:24:12;;;;;;;2.50;2.40;;;;;;;7.40;100.00;98845.13;87746;277;138840;-81
2024/04/17 07:26:12;;;;;;;1.70;1.70;;;;;;;7.39;100.00;98842.42;87721;279;22835;-78
2024/04/17 07:28:13;;;;;;;2.00;1.90;;;;;;;7.40;100.00;98843.65;87761;275;137878;-81
2024/04/17 07:30:14;;;;;;;1.50;1.30;;;;;;;7.40;100.00;98835.98;87928;266;22573;-82
2024/04/17 07:32:15;;;;;;;2.30;2.10;;;;;;;7.40;100.00;98836.19;87599;278;136715;-82
2024/04/17 07:34:15;;;;;;;1.50;1.40;;;;;;;7.41;100.00;98839.04;87692;279;22608;-81
2024/04/17 07:36:16;;;;;;;2.10;1.90;;;;;;;7.44;100.00;98838.88;87569;267;136704;-82
2024/04/17 07:38:17;;;;;;;3.20;2.70;;;;;;;7.44;100.00;98835.20;87734;264;22508;-81
2024/04/17 07:40:17;;;;;;;3.10;1.70;;;;;;;7.43;100.00;98833.17;87502;271;136623;-81
2024/04/17 07:42:18;;;;;;;1.90;1.80;;;;;;;7.44;100.00;98833.90;87706;280;25111;-81
2024/04/17 07:44:19;;;;;;;1.70;1.60;;;;;;;7.45;100.00;98836.14;87795;269;136319;-82
2024/04/17 07:46:20;;;;;;;1.10;1.00;;;;;;;7.44;100.00;98836.40;88824;271;23631;-82
2024/04/17 07:48:20;;;;;;;0.70;0.70;;;;;;;7.43;100.00;98837.77;88709;270;137888;-82
2024/04/17 07:50:24;;;;;;;1.20;1.10;;;;;;;7.40;100.00;98835.83;88949;270;23754;-81
2024/04/17 07:52:26;;;;;;;2.90;1.00;;;;;;;7.38;100.00;98832.23;88327;271;137634;-82
2024/04/17 07:54:27;;;;;;;0.80;0.80;;;;;;;7.37;100.00;98826.56;88488;269;23351;-82
2024/04/17 07:56:27;;;;;;;3.10;1.10;;;;;;;7.37;100.00;98823.10;88467;280;136533;-83
2024/04/17 07:58:28;;;;;;;1.10;1.00;;;;;;;7.41;100.00;98821.42;88383;279;23752;-81
2024/04/17 08:00:29;;;;;;;2.20;0.60;;;;;;;7.42;100.00;98819.67;87604;276;137896;-83
2024/04/17 08:02:29;;;;;;;0.80;0.50;;;;;;;7.41;100.00;98823.02;87617;279;24020;-83
2024/04/17 08:04:30;;;;;;;1.10;1.00;;;;;;;7.39;100.00;98825.10;87505;279;137503;-81
2024/04/17 08:06:31;;;;;;;0.90;0.90;;;;;;;7.37;100.00;98822.45;87716;270;24252;-81
2024/04/17 08:08:32;;;;;;;0.70;0.50;;;;;;;7.36;100.00;98823.71;87492;271;136808;-78
2024/04/17 08:10:33;;;;;;;1.30;1.10;;;;;;;7.35;100.00;98826.23;87642;262;22606;-81
2024/04/17 08:12:36;;;;;;;0.50;0.30;;;;;;;7.35;100.00;98824.98;87397;276;137323;-80
2024/04/17 08:14:40;;;;;;;0.30;0.30;;;;;;;7.36;100.00;98821.10;87691;263;25209;-81
2024/04/17 08:16:41;;;;;;;1.90;0.90;;;;;;;7.37;100.00;98820.65;87534;271;137595;-82
2024/04/17 08:18:42;;;;;;;0.40;0.30;;;;;;;7.38;100.00;98816.49;87583;272;22619;-79
2024/04/17 08:20:43;;;;;;;0.20;0.20;;;;;;;7.37;100.00;98819.63;87524;270;136386;-82
2024/04/17 08:22:43;;;;;;;2.80;0.70;;;;;;;7.34;100.00;98812.05;87620;270;22645;-81
2024/04/17 08:24:44;;;;;;;1.50;0.50;;;;;;;7.31;100.00;98806.42;87514;275;137889;-80
2024/04/17 08:26:45;;;;;;;1.00;0.60;;;;;;;7.31;100.00;98805.80;87649;275;25106;-80
2024/04/17 08:28:45;;;;;;;2.10;0.50;;;;;;;7.30;100.00;98800.11;87390;279;137820;-80
2024/04/17 08:30:46;;;;;;;0.70;0.70;;;;;;;7.29;100.00;98795.20;87493;268;22574;-79
2024/04/17 08:32:48;;;;;;;1.50;1.40;;;;;;;7.29;100.00;98796.42;87413;272;136434;-80
2024/04/17 08:34:49;;;;;;;1.40;1.30;;;;;;;7.29;100.00;98798.77;87621;275;25071;-79
2024/04/17 08:36:50;;;;;;;1.40;0.80;;;;;;;7.27;100.00;98800.46;87558;266;136001;-82
2024/04/17 08:38:55;;;;;;;2.00;1.10;;;;;;;7.27;100.00;98797.45;87659;271;22725;-78
2024/04/17 08:40:55;;;;;;;2.30;1.20;;;;;;;7.26;100.00;98794.71;87557;275;137615;-82
2024/04/17 08:43:02;;;;;;;1.70;1.60;;;;;;;7.30;100.00;98794.59;87566;278;22564;-81
2024/04/17 08:45:08;;;;;;;0.80;0.70;;;;;;;7.35;100.00;98796.71;87683;275;136881;-80
2024/04/17 08:47:11;;;;;;;0.70;0.70;;;;;;;7.36;100.00;98794.95;87673;267;22657;-83
2024/04/17 08:49:14;;;;;;;1.10;1.00;;;;;;;7.34;100.00;98788.08;87746;266;136351;-85
2024/04/17 08:51:19;;;;;;;1.70;1.10;;;;;;;7.31;100.00;98795.91;87745;267;24040;-81
2024/04/17 08:53:20;;;;;;;;;;;;;;;7.28;100.00;98798.35;87486;267;138111;-82
2024/04/17 08:55:21;;;;;;;2.00;1.00;;;;;;;7.26;100.00;98795.38;87544;279;22517;-83
2024/04/17 08:57:22;;;;;;;2.20;1.70;;;;;;;7.22;100.00;98796.88;87537;275;136653;-83
2024/04/17 08:59:23;;;;;;;1.20;1.20;;;;;;;7.21;100.00;98802.23;87777;273;22563;-83
2024/04/17 09:01:31;;;;;;;2.30;1.90;;;;;;;7.22;100.00;98804.79;87537;277;136519;-85
2024/04/17 09:03:35;;;;;;;1.30;1.30;;;;;;;7.25;100.00;98811.44;87819;279;22642;-81
2024/04/17 09:05:36;;;;;;;4.30;2.00;;;;;;;7.29;100.00;98813.02;87337;279;136290;-81
2024/04/17 09:07:40;;;;;;;3.20;3.10;;;;;;;7.32;100.00;98811.07;87574;271;22578;-83
2024/04/17 09:09:41;;;;;;;2.20;1.50;;;;;;;7.35;100.00;98808.25;87777;271;136549;-82
2024/04/17 09:11:43;;;;;;;1.50;1.40;;;;;;;7.37;100.00;98814.54;88508;270;25273;-81
2024/04/17 09:13:43;;;;;;;1.70;1.60;;;;;;;7.38;100.00;98813.31;87559;271;137882;-83
2024/04/17 09:15:44;;;;;;;3.00;1.40;;;;;;;7.41;100.00;98816.23;87705;271;24586;-81
2024/04/17 09:17:47;;;;;;;1.60;1.10;;;;;;;7.44;100.00;98811.36;87572;267;136474;-81
2024/04/17 09:19:47;;;;;;;2.40;1.10;;;;;;;7.44;100.00;98810.23;87540;279;22844;-80
2024/04/17 09:21:48;;;;;;;2.10;0.90;;;;;;;7.45;100.00;98801.86;87470;275;136377;-83
2024/04/17 09:23:48;;;;;;;1.80;1.10;;;;;;;7.45;100.00;98805.80;87523;275;22602;-84
2024/04/17 09:25:49;;;;;;;1.10;1.10;;;;;;;7.48;100.00;98804.05;87538;274;137479;-81
2024/04/17 09:27:50;;;;;;;2.90;1.40;;;;;;;7.50;100.00;98805.80;87731;272;23999;-83
2024/04/17 09:29:51;;;;;;;1.70;1.40;;;;;;;7.53;100.00;98806.73;87821;267;136748;-82
2024/04/17 09:31:52;;;;;;;1.30;1.20;;;;;;;7.53;100.00;98805.79;88228;278;23595;-81
2024/04/17 09:33:54;;;;;;;1.80;1.00;;;;;;;7.54;100.00;98803.79;87645;279;136201;-81